logo
Search for airport 
image banner adimage banner adimage banner ad
image banner ad

MRFM - Finca Manu

Located in Matama, Costa Rica

ICAO - , IATA -

Data provided by Airmate  

General information

Coordinates: N9°49'39" W83°3'57"
Elevation is 280 feet MSL.
 
View others Airports in Limon

Operational data

Special qualification required
Current time UTC:
Current local time:
Weather at : MRLM - Limon Intl ( 15 km )
METAR: MRLM 251700Z 09007KT 9999 FEW025 31/26 A2989
TAF: MRLM 251730Z 2518/2618 06006KT 9999 FEW020 TX31/2521Z TN23/2611Z BECMG 2602/2604 23005KT BECMG 2614/2616 09007KT
View NOTAMs / SUP AIP / TFR affecting this airport [VIEW]
Communications frequencies: [VIEW]

Runways:

RWY identifierQFULength (ft)Width (ft)SurfaceLDA (ft)
1100UNK
2900UNK

Airport contact information

Address: Matama Costa Rica

Satellite view of MRFM